Time;durP1;ratioP1;P1;durP2;ratioP2;P2;SDS_P1;SDS_P2;PMS_P1;PMS_P2;Temp;Humidity;BMP_temperature;BMP_pressure;BME280_temperature;BME280_humidity;BME280_pressure;Samples;Min_cycle;Max_cycle;Signal;HPM_P1;HPM_P2
2021/06/11 00:01:30;;;;;;;0.55;0.55;;;18.90;64.10;;;;;;5030991;28;20052;-74
2021/06/11 00:03:56;;;;;;;0.65;0.60;;;18.90;64.20;;;;;;5030607;28;20042;-74
2021/06/11 00:06:22;;;;;;;0.60;0.60;;;18.80;64.30;;;;;;5029627;28;20046;-74
2021/06/11 00:08:47;;;;;;;0.60;0.60;;;18.80;64.40;;;;;;5014503;28;20075;-74
2021/06/11 00:11:13;;;;;;;0.60;0.60;;;18.80;64.50;;;;;;5032032;28;20030;-74
2021/06/11 00:13:39;;;;;;;0.50;0.50;;;18.70;64.60;;;;;;5030809;28;20475;-74
2021/06/11 00:16:05;;;;;;;0.63;0.60;;;18.70;64.70;;;;;;5032024;28;20040;-74
2021/06/11 00:18:31;;;;;;;0.50;0.50;;;18.70;64.80;;;;;;5031876;28;20056;-74
2021/06/11 00:20:57;;;;;;;0.73;0.50;;;18.60;64.90;;;;;;5030496;28;20040;-74
2021/06/11 00:23:23;;;;;;;0.55;0.55;;;18.60;65.00;;;;;;5031086;28;20442;-74
2021/06/11 00:25:52;;;;;;;0.55;0.55;;;18.60;65.10;;;;;;5013923;28;20053;-74
2021/06/11 00:28:18;;;;;;;0.50;0.50;;;18.60;65.20;;;;;;5013823;28;20046;-74
2021/06/11 00:30:44;;;;;;;0.60;0.60;;;18.60;65.20;;;;;;5014267;28;20048;-74
2021/06/11 00:33:10;;;;;;;0.55;0.55;;;18.50;65.90;;;;;;5031519;28;20045;-74
2021/06/11 00:35:36;;;;;;;0.40;0.40;;;18.50;65.40;;;;;;5031256;28;20045;-74
2021/06/11 00:38:03;;;;;;;0.70;0.57;;;18.50;65.60;;;;;;5030645;28;20089;-74
2021/06/11 00:40:30;;;;;;;0.50;0.50;;;18.40;65.60;;;;;;5031547;28;20053;-74
2021/06/11 00:42:56;;;;;;;0.50;0.50;;;18.40;65.80;;;;;;5031954;28;20124;-74
2021/06/11 00:45:22;;;;;;;0.47;0.47;;;18.30;65.90;;;;;;5013667;28;20125;-74
2021/06/11 00:47:48;;;;;;;0.57;0.57;;;18.30;66.00;;;;;;5030660;28;20490;-74
2021/06/11 00:50:20;;;;;;;0.60;0.60;;;18.30;66.10;;;;;;5032317;28;20116;-74
2021/06/11 00:52:46;;;;;;;0.45;0.45;;;18.30;66.20;;;;;;5031687;28;20037;-74
2021/06/11 00:55:12;;;;;;;0.70;0.60;;;18.30;66.20;;;;;;5031653;28;20466;-75
2021/06/11 00:57:38;;;;;;;0.40;0.40;;;18.30;66.30;;;;;;5013540;28;20136;-75
2021/06/11 01:00:06;;;;;;;0.40;0.40;;;18.20;66.30;;;;;;5030399;28;20045;-75
2021/06/11 01:02:31;;;;;;;0.40;0.40;;;18.30;66.40;;;;;;5030111;28;20049;-74
2021/06/11 01:04:57;;;;;;;0.65;0.60;;;18.20;66.40;;;;;;5029966;28;20107;-74
2021/06/11 01:07:24;;;;;;;0.60;0.60;;;18.10;66.40;;;;;;5030895;28;20038;-74
2021/06/11 01:09:51;;;;;;;0.50;0.50;;;18.10;66.50;;;;;;5031252;28;20159;-74
2021/06/11 01:12:17;;;;;;;0.65;0.65;;;18.10;66.60;;;;;;5037150;28;20095;-75
2021/06/11 01:14:43;;;;;;;0.70;0.70;;;18.10;66.70;;;;;;5033905;28;20061;-75
2021/06/11 01:17:10;;;;;;;0.95;0.70;;;18.00;66.70;;;;;;5018636;28;20508;-75
2021/06/11 01:19:42;;;;;;;0.60;0.60;;;18.00;66.80;;;;;;5016550;28;20046;-75
2021/06/11 01:22:17;;;;;;;0.63;0.63;;;18.00;66.90;;;;;;5030216;28;20042;-75
2021/06/11 01:25:04;;;;;;;0.70;0.70;;;18.00;67.00;;;;;;5035192;28;20045;-75
2021/06/11 01:27:32;;;;;;;0.60;0.60;;;17.90;67.00;;;;;;5036062;28;20052;-74
2021/06/11 01:30:05;;;;;;;0.50;0.50;;;17.90;67.10;;;;;;5036055;28;20506;-75
2021/06/11 01:32:33;;;;;;;0.70;0.70;;;17.90;67.20;;;;;;5036131;28;20105;-75
2021/06/11 01:35:03;;;;;;;0.47;0.47;;;17.90;67.30;;;;;;5035192;28;20063;-75
2021/06/11 01:37:33;;;;;;;0.70;0.68;;;17.80;67.30;;;;;;5017999;28;20048;-75
2021/06/11 01:40:05;;;;;;;0.88;0.50;;;17.80;67.50;;;;;;5034744;28;20041;-75
2021/06/11 01:42:36;;;;;;;0.70;0.70;;;17.70;67.50;;;;;;5034632;28;20041;-74
2021/06/11 01:45:08;;;;;;;0.75;0.75;;;17.70;67.60;;;;;;5034619;28;20463;-75
2021/06/11 01:47:38;;;;;;;0.80;0.80;;;17.70;67.70;;;;;;5037002;28;20488;-75
2021/06/11 01:50:07;;;;;;;0.82;0.70;;;17.70;67.80;;;;;;5038450;28;20503;-76
2021/06/11 01:52:33;;;;;;;0.70;0.70;;;17.70;67.90;;;;;;5021299;28;20435;-75
2021/06/11 01:55:00;;;;;;;0.50;0.50;;;17.70;67.90;;;;;;5038399;28;20444;-75
2021/06/11 01:57:27;;;;;;;0.82;0.82;;;17.60;68.00;;;;;;5038920;28;20033;-75
2021/06/11 01:59:54;;;;;;;0.73;0.70;;;17.60;68.10;;;;;;5021949;28;20060;-75
2021/06/11 02:02:20;;;;;;;0.55;0.55;;;17.60;68.20;;;;;;5038356;28;20091;-76
2021/06/11 02:04:46;;;;;;;0.55;0.55;;;17.50;68.20;;;;;;5039916;28;20053;-75
2021/06/11 02:07:14;;;;;;;1.27;0.68;;;17.50;68.30;;;;;;5039066;28;20034;-75
2021/06/11 02:09:41;;;;;;;0.80;0.80;;;17.50;68.40;;;;;;5021820;28;20182;-75
2021/06/11 02:12:08;;;;;;;1.05;0.90;;;17.50;68.50;;;;;;5038129;28;20038;-75
2021/06/11 02:14:35;;;;;;;1.27;0.98;;;17.40;68.50;;;;;;5019106;28;20399;-75
2021/06/11 02:17:03;;;;;;;0.80;0.80;;;17.40;68.70;;;;;;5035384;28;20045;-74
2021/06/11 02:19:30;;;;;;;0.82;0.82;;;17.40;68.80;;;;;;5035953;28;20546;-75
2021/06/11 02:21:56;;;;;;;1.05;0.95;;;17.40;69.00;;;;;;5019481;28;20510;-74
2021/06/11 02:24:22;;;;;;;0.82;0.82;;;17.30;69.10;;;;;;5018947;28;20112;-75
2021/06/11 02:26:49;;;;;;;1.00;0.90;;;17.30;69.30;;;;;;5034135;28;20038;-75
2021/06/11 02:29:15;;;;;;;0.98;0.82;;;17.20;69.30;;;;;;5037627;28;20041;-75
2021/06/11 02:31:41;;;;;;;1.38;1.08;;;17.20;69.30;;;;;;5020975;28;21235;-75
2021/06/11 02:34:08;;;;;;;1.63;1.00;;;17.30;69.40;;;;;;5021232;28;20042;-76
2021/06/11 02:36:35;;;;;;;0.88;0.82;;;17.30;69.50;;;;;;5039575;28;20513;-75
2021/06/11 02:39:01;;;;;;;1.48;1.17;;;17.20;69.50;;;;;;5039059;28;20136;-75
2021/06/11 02:41:33;;;;;;;0.98;0.88;;;17.20;69.60;;;;;;5038357;28;20100;-75
2021/06/11 02:43:59;;;;;;;1.17;1.02;;;17.20;69.60;;;;;;5039031;28;20117;-75
2021/06/11 02:46:32;;;;;;;1.05;0.95;;;17.30;69.70;;;;;;5037115;28;20034;-75
2021/06/11 02:49:14;;;;;;;1.33;1.10;;;17.30;69.80;;;;;;5036038;28;20072;-75
2021/06/11 02:51:44;;;;;;;1.25;0.90;;;17.20;69.80;;;;;;5037241;28;20367;-75
2021/06/11 02:54:15;;;;;;;1.08;0.70;;;17.30;69.80;;;;;;5021380;28;20038;-75
2021/06/11 02:56:48;;;;;;;2.03;1.42;;;17.20;69.80;;;;;;5021002;28;20045;-75
2021/06/11 02:59:27;;;;;;;1.35;1.13;;;17.20;69.90;;;;;;5037151;28;20041;-75
2021/06/11 03:02:03;;;;;;;2.00;1.30;;;17.20;70.00;;;;;;5017278;28;20042;-75
2021/06/11 03:04:31;;;;;;;1.33;1.15;;;17.20;70.10;;;;;;5020400;28;20967;-75
2021/06/11 03:06:58;;;;;;;1.15;1.05;;;17.20;70.10;;;;;;5037996;28;20050;-75
2021/06/11 03:09:26;;;;;;;0.90;0.90;;;17.20;70.20;;;;;;5038868;28;20087;-75
2021/06/11 03:11:55;;;;;;;0.70;0.60;;;17.20;70.30;;;;;;5036796;28;20044;-75
2021/06/11 03:14:22;;;;;;;0.95;0.85;;;17.10;70.30;;;;;;5037127;28;20045;-75
2021/06/11 03:16:56;;;;;;;1.13;1.00;;;17.10;70.30;;;;;;5039733;28;20050;-75
2021/06/11 03:19:24;;;;;;;1.40;1.10;;;17.10;70.40;;;;;;5037201;28;20045;-75
2021/06/11 03:21:56;;;;;;;1.45;0.90;;;17.10;70.40;;;;;;5021311;28;20484;-75
2021/06/11 03:24:40;;;;;;;1.52;1.17;;;17.10;70.50;;;;;;5035918;28;20049;-74
2021/06/11 03:27:13;;;;;;;1.60;1.25;;;17.10;70.80;;;;;;5039254;28;20044;-75
2021/06/11 03:29:44;;;;;;;1.00;0.90;;;17.00;70.80;;;;;;5036657;28;20045;-75
2021/06/11 03:32:19;;;;;;;1.10;1.00;;;16.90;70.80;;;;;;5037481;28;20092;-75
2021/06/11 03:34:56;;;;;;;1.73;1.20;;;17.00;71.00;;;;;;5035184;28;20051;-75
2021/06/11 03:37:24;;;;;;;1.20;0.90;;;16.90;71.10;;;;;;5020442;28;20033;-75
2021/06/11 03:39:54;;;;;;;2.10;1.30;;;16.90;71.10;;;;;;5037599;28;20040;-74
2021/06/11 03:42:21;;;;;;;1.63;1.10;;;16.90;71.20;;;;;;5033761;28;20033;-74
2021/06/11 03:44:50;;;;;;;1.08;0.88;;;16.90;71.30;;;;;;5031734;28;20418;-74
2021/06/11 03:47:18;;;;;;;1.88;1.30;;;16.90;71.30;;;;;;5033233;28;20091;-74
2021/06/11 03:49:46;;;;;;;1.33;1.08;;;16.90;71.40;;;;;;5012407;28;20129;-74
2021/06/11 03:52:12;;;;;;;1.50;1.08;;;16.90;71.50;;;;;;5013687;28;20040;-75
2021/06/11 03:54:46;;;;;;;0.88;0.80;;;16.90;71.40;;;;;;5012974;28;20131;-74
2021/06/11 03:57:15;;;;;;;1.05;0.95;;;16.90;71.40;;;;;;5009779;28;20424;-75
2021/06/11 03:59:43;;;;;;;0.70;0.70;;;16.90;71.40;;;;;;5012302;28;20065;-74
2021/06/11 04:02:09;;;;;;;1.15;0.90;;;17.00;71.40;;;;;;5009132;28;20124;-74
2021/06/11 04:04:36;;;;;;;1.42;1.00;;;16.90;71.40;;;;;;5010345;28;20132;-75
2021/06/11 04:07:10;;;;;;;1.20;1.00;;;16.90;71.50;;;;;;5010073;28;20049;-75
2021/06/11 04:09:45;;;;;;;1.10;1.00;;;16.90;71.50;;;;;;5010449;28;20467;-75
2021/06/11 04:12:17;;;;;;;1.98;1.17;;;17.00;71.60;;;;;;5010448;28;20046;-75
2021/06/11 04:14:48;;;;;;;1.65;1.13;;;17.00;71.60;;;;;;5027100;28;20125;-75
2021/06/11 04:17:20;;;;;;;1.45;1.15;;;16.90;71.70;;;;;;5012316;28;20514;-74
2021/06/11 04:19:49;;;;;;;2.10;1.00;;;16.90;71.70;;;;;;5012527;28;20101;-74
2021/06/11 04:22:21;;;;;;;2.30;1.40;;;17.00;71.70;;;;;;5012740;28;20045;-74
2021/06/11 04:24:49;;;;;;;1.52;1.15;;;17.00;71.80;;;;;;5012328;28;20477;-74
2021/06/11 04:27:16;;;;;;;1.58;1.20;;;17.00;71.80;;;;;;5009527;28;20542;-75
2021/06/11 04:29:45;;;;;;;1.00;0.90;;;17.10;71.90;;;;;;5012708;28;20520;-74
2021/06/11 04:32:11;;;;;;;1.70;1.13;;;17.10;71.80;;;;;;5007023;28;20084;-75
2021/06/11 04:34:37;;;;;;;1.30;1.15;;;17.00;71.80;;;;;;5028552;28;20400;-75
2021/06/11 04:37:03;;;;;;;1.45;1.08;;;17.10;71.90;;;;;;5030445;28;20033;-75
2021/06/11 04:39:29;;;;;;;1.95;1.33;;;17.10;71.90;;;;;;5030584;28;20041;-75
2021/06/11 04:41:55;;;;;;;2.10;1.40;;;17.10;71.90;;;;;;5030572;28;20044;-75
2021/06/11 04:44:23;;;;;;;3.20;1.27;;;17.10;72.00;;;;;;5031906;28;20042;-75
2021/06/11 04:46:49;;;;;;;1.48;1.20;;;17.20;72.00;;;;;;5015606;28;20048;-75
2021/06/11 04:49:15;;;;;;;1.20;1.05;;;17.20;72.00;;;;;;4997766;28;20037;-74
2021/06/11 04:51:40;;;;;;;1.60;1.20;;;17.20;72.00;;;;;;5030949;28;20480;-74
2021/06/11 04:54:06;;;;;;;1.80;1.33;;;17.20;72.00;;;;;;5031538;28;20446;-74
2021/06/11 04:56:32;;;;;;;1.60;1.20;;;17.30;72.10;;;;;;5030384;28;20511;-75
2021/06/11 04:58:59;;;;;;;1.55;1.10;;;17.30;72.10;;;;;;5030284;28;20045;-75
2021/06/11 05:01:25;;;;;;;1.92;1.30;;;17.40;72.10;;;;;;5031965;28;20124;-74
2021/06/11 05:03:51;;;;;;;2.05;1.35;;;17.40;72.10;;;;;;5031138;28;20120;-75
2021/06/11 05:06:18;;;;;;;1.88;1.40;;;17.50;72.10;;;;;;5031324;28;20045;-75
2021/06/11 05:08:45;;;;;;;1.52;1.20;;;17.50;72.10;;;;;;5030100;28;20486;-75
2021/06/11 05:11:11;;;;;;;1.20;1.10;;;17.50;72.10;;;;;;5030643;28;20080;-75
2021/06/11 05:13:37;;;;;;;1.75;1.48;;;17.50;72.20;;;;;;5031855;28;20124;-75
2021/06/11 05:16:03;;;;;;;2.75;1.50;;;17.60;72.20;;;;;;5031792;28;20548;-75
2021/06/11 05:18:30;;;;;;;2.67;1.85;;;17.70;72.20;;;;;;5030115;28;20049;-75
2021/06/11 05:20:56;;;;;;;2.08;1.60;;;17.60;72.20;;;;;;5031301;28;20558;-75
2021/06/11 05:23:22;;;;;;;2.45;1.60;;;17.70;72.20;;;;;;5015691;28;20038;-74
2021/06/11 05:25:49;;;;;;;2.00;1.48;;;17.80;72.20;;;;;;5034660;28;20053;-75
2021/06/11 05:28:16;;;;;;;1.55;1.20;;;17.90;72.20;;;;;;5034552;28;20049;-76
2021/06/11 05:30:42;;;;;;;2.65;1.50;;;17.80;72.20;;;;;;5033593;28;20037;-75
2021/06/11 05:33:08;;;;;;;2.53;1.70;;;17.90;72.20;;;;;;5016875;28;20030;-75
2021/06/11 05:35:34;;;;;;;2.25;1.45;;;18.10;72.20;;;;;;5016979;28;20079;-74
2021/06/11 05:38:04;;;;;;;1.92;1.50;;;18.10;72.00;;;;;;5034582;28;20060;-77
2021/06/11 05:40:32;;;;;;;3.50;1.50;;;18.20;71.80;;;;;;5033926;28;20104;-75
2021/06/11 05:42:58;;;;;;;2.03;1.20;;;18.20;71.90;;;;;;5016729;28;20854;-75
2021/06/11 05:45:25;;;;;;;1.33;1.20;;;18.20;72.10;;;;;;5029880;28;20159;-75
2021/06/11 05:47:51;;;;;;;1.50;1.20;;;18.20;72.30;;;;;;5014831;28;20045;-75
2021/06/11 05:50:16;;;;;;;1.33;1.05;;;18.20;72.40;;;;;;5029917;28;20088;-74
2021/06/11 05:52:42;;;;;;;2.45;1.40;;;18.20;72.50;;;;;;5014471;28;20052;-74
2021/06/11 05:55:09;;;;;;;1.88;1.48;;;18.30;72.50;;;;;;5011705;28;20115;-74
2021/06/11 05:57:34;;;;;;;4.30;1.27;;;18.30;72.50;;;;;;5011571;28;20037;-74
2021/06/11 06:00:01;;;;;;;1.58;1.30;;;18.30;72.50;;;;;;5028974;28;20528;-74
2021/06/11 06:02:27;;;;;;;1.85;1.25;;;18.30;72.50;;;;;;5014877;28;20049;-74
2021/06/11 06:04:53;;;;;;;2.35;1.30;;;18.40;72.70;;;;;;5035716;28;20046;-76
2021/06/11 06:07:19;;;;;;;1.55;1.20;;;18.40;72.60;;;;;;5018272;28;20046;-77
2021/06/11 06:09:45;;;;;;;2.33;1.60;;;18.50;72.60;;;;;;5014683;28;20038;-75
2021/06/11 06:12:11;;;;;;;2.42;1.60;;;18.40;72.50;;;;;;5029692;28;20037;-76
2021/06/11 06:14:37;;;;;;;1.90;1.40;;;18.50;72.70;;;;;;5015268;28;20032;-71
2021/06/11 06:17:03;;;;;;;2.22;1.50;;;18.50;72.80;;;;;;5014004;28;20436;-74
2021/06/11 06:19:30;;;;;;;2.15;1.60;;;18.50;72.70;;;;;;5015111;28;20097;-77
2021/06/11 06:21:55;;;;;;;1.92;1.38;;;18.60;72.60;;;;;;5029701;28;20037;-75
2021/06/11 06:24:21;;;;;;;2.33;1.40;;;18.60;72.70;;;;;;5016672;28;20447;-74
2021/06/11 06:26:47;;;;;;;1.90;1.30;;;18.50;72.90;;;;;;5034075;28;20831;-73
2021/06/11 06:29:12;;;;;;;2.22;1.40;;;18.60;73.00;;;;;;5032562;28;20036;-74
2021/06/11 06:31:38;;;;;;;2.45;1.50;;;18.60;72.70;;;;;;5033979;28;20045;-75
2021/06/11 06:34:04;;;;;;;2.00;1.50;;;18.80;72.60;;;;;;5031938;28;20030;-75
2021/06/11 06:36:30;;;;;;;1.75;1.30;;;18.90;72.50;;;;;;5034017;28;20048;-75
2021/06/11 06:38:57;;;;;;;2.30;1.70;;;19.00;72.20;;;;;;5033795;28;20083;-76
2021/06/11 06:41:23;;;;;;;2.28;1.30;;;19.20;72.20;;;;;;5033686;28;20052;-76
2021/06/11 06:43:57;;;;;;;1.48;1.13;;;19.40;71.90;;;;;;5033631;28;20116;-75
2021/06/11 06:46:24;;;;;;;2.00;1.40;;;19.50;71.60;;;;;;5032768;28;20459;-76
2021/06/11 06:48:52;;;;;;;1.52;1.20;;;19.60;71.30;;;;;;5022164;28;20045;-76
2021/06/11 06:51:19;;;;;;;2.15;1.30;;;19.80;71.10;;;;;;5037915;28;20052;-76
2021/06/11 06:53:45;;;;;;;2.08;1.33;;;19.90;70.80;;;;;;5020116;28;20557;-76
2021/06/11 06:56:11;;;;;;;1.20;1.10;;;20.10;70.80;;;;;;5041398;28;20045;-76
2021/06/11 06:58:36;;;;;;;1.45;1.20;;;20.20;70.60;;;;;;5021862;28;20049;-76
2021/06/11 07:01:04;;;;;;;1.48;1.30;;;20.30;70.50;;;;;;5037368;28;20109;-76
2021/06/11 07:03:31;;;;;;;1.77;1.10;;;20.50;70.40;;;;;;5018506;28;20056;-76
2021/06/11 07:05:58;;;;;;;2.85;1.60;;;20.60;70.10;;;;;;5035224;28;20037;-76
2021/06/11 07:08:26;;;;;;;3.15;1.77;;;20.60;70.10;;;;;;5033867;28;20113;-77
2021/06/11 07:10:52;;;;;;;1.40;1.25;;;20.70;70.10;;;;;;5037995;28;20068;-76
2021/06/11 07:13:18;;;;;;;2.42;1.52;;;20.80;70.20;;;;;;5039559;28;20589;-77
2021/06/11 07:15:44;;;;;;;3.28;2.08;;;21.00;70.10;;;;;;5036029;28;20061;-77
2021/06/11 07:18:10;;;;;;;3.70;1.95;;;21.10;69.80;;;;;;5020398;28;20065;-77
2021/06/11 07:20:36;;;;;;;2.78;1.88;;;21.30;69.70;;;;;;5041655;28;20029;-77
2021/06/11 07:23:02;;;;;;;3.08;2.00;;;21.30;69.60;;;;;;5039025;28;20084;-78
2021/06/11 07:25:27;;;;;;;2.65;1.88;;;21.50;69.60;;;;;;5019022;28;20049;-75
2021/06/11 07:27:53;;;;;;;3.33;1.95;;;21.60;69.50;;;;;;5018508;28;20094;-76
2021/06/11 07:30:19;;;;;;;2.92;2.00;;;21.70;69.40;;;;;;5034604;28;20067;-75
2021/06/11 07:32:45;;;;;;;3.55;2.20;;;21.80;69.30;;;;;;5034640;28;20041;-75
2021/06/11 07:35:12;;;;;;;3.20;2.17;;;21.90;69.40;;;;;;5015888;28;20526;-75
2021/06/11 07:37:39;;;;;;;3.30;2.17;;;22.00;69.20;;;;;;5033782;28;20399;-76
2021/06/11 07:40:06;;;;;;;2.90;1.77;;;22.10;69.30;;;;;;5017988;28;20049;-75
2021/06/11 07:42:33;;;;;;;3.13;2.05;;;22.20;69.00;;;;;;5033065;28;20046;-75
2021/06/11 07:44:58;;;;;;;2.80;1.80;;;22.20;69.20;;;;;;5041034;28;20376;-76
2021/06/11 07:47:24;;;;;;;3.60;2.30;;;22.30;69.20;;;;;;5043999;28;20083;-77
2021/06/11 07:49:50;;;;;;;2.45;1.73;;;22.40;69.20;;;;;;5038881;28;20113;-76
2021/06/11 07:52:16;;;;;;;2.92;1.85;;;22.40;69.10;;;;;;5034047;28;20099;-77
2021/06/11 07:54:42;;;;;;;3.03;1.90;;;22.50;69.10;;;;;;5038253;28;20073;-76
2021/06/11 07:57:08;;;;;;;3.70;2.10;;;22.70;68.90;;;;;;5027388;28;20050;-76
2021/06/11 07:59:34;;;;;;;2.25;1.48;;;22.80;68.70;;;;;;5001907;28;20088;-76
2021/06/11 08:02:00;;;;;;;3.03;1.98;;;22.90;68.70;;;;;;5020737;28;20487;-76
2021/06/11 08:04:26;;;;;;;2.42;1.60;;;23.10;68.60;;;;;;5042934;28;20045;-76
2021/06/11 08:06:52;;;;;;;3.70;2.00;;;23.20;68.40;;;;;;5042076;28;20032;-77
2021/06/11 08:09:17;;;;;;;1.98;1.50;;;23.40;68.10;;;;;;5041023;28;20391;-77
2021/06/11 08:11:43;;;;;;;2.53;1.70;;;23.40;68.20;;;;;;5031772;28;20046;-76
2021/06/11 08:14:09;;;;;;;2.25;1.45;;;23.50;68.10;;;;;;5045180;28;20036;-77
2021/06/11 08:16:35;;;;;;;1.88;1.38;;;23.60;67.90;;;;;;5040543;28;20042;-77
2021/06/11 08:19:00;;;;;;;2.92;1.85;;;23.80;67.80;;;;;;5030012;28;20110;-76
2021/06/11 08:21:26;;;;;;;3.35;2.00;;;23.90;67.60;;;;;;5024873;28;20515;-77
2021/06/11 08:23:52;;;;;;;2.63;1.70;;;24.00;67.50;;;;;;5037873;28;20048;-77
2021/06/11 08:26:18;;;;;;;3.33;1.80;;;24.00;67.50;;;;;;5029370;28;20043;-76
2021/06/11 08:28:44;;;;;;;3.30;2.08;;;24.10;67.50;;;;;;5044191;28;20079;-77
2021/06/11 08:31:10;;;;;;;2.85;1.92;;;24.10;67.40;;;;;;5032652;28;20085;-76
2021/06/11 08:33:35;;;;;;;2.88;1.83;;;24.20;67.50;;;;;;5032991;28;20037;-76
2021/06/11 08:36:01;;;;;;;2.63;1.90;;;24.30;67.50;;;;;;5030711;28;20053;-76
2021/06/11 08:38:27;;;;;;;2.08;1.60;;;24.30;67.40;;;;;;5039490;28;20037;-76
2021/06/11 08:40:53;;;;;;;3.75;2.40;;;24.40;67.30;;;;;;5023787;28;20045;-76
2021/06/11 08:43:20;;;;;;;2.72;1.80;;;24.50;67.20;;;;;;5037503;28;20079;-75
2021/06/11 08:45:47;;;;;;;2.50;1.73;;;24.60;67.20;;;;;;5037417;28;20045;-78
2021/06/11 08:48:13;;;;;;;2.42;1.77;;;24.80;67.00;;;;;;5018822;28;20042;-77
2021/06/11 08:50:41;;;;;;;2.47;1.70;;;24.90;66.70;;;;;;5032350;28;20116;-78
2021/06/11 08:53:07;;;;;;;2.92;1.90;;;25.00;66.50;;;;;;5036906;28;20029;-76
2021/06/11 08:55:34;;;;;;;2.45;1.77;;;25.20;66.40;;;;;;5020579;28;20034;-76
2021/06/11 08:57:59;;;;;;;2.58;1.77;;;25.10;66.30;;;;;;5039627;28;20041;-77
2021/06/11 09:00:28;;;;;;;2.22;1.73;;;25.20;66.30;;;;;;5037992;28;20029;-76
2021/06/11 09:03:27;;;;;;;2.97;1.88;;;25.20;66.30;;;;;;5043014;28;20037;-76
2021/06/11 09:06:06;;;;;;;3.08;2.00;;;25.40;66.20;;;;;;5041796;28;20045;-78
2021/06/11 09:08:32;;;;;;;2.45;1.70;;;25.60;65.80;;;;;;5036639;28;20037;-75
2021/06/11 09:11:14;;;;;;;2.63;1.80;;;25.60;65.80;;;;;;5035111;28;20145;-77
2021/06/11 09:13:41;;;;;;;3.08;2.00;;;25.60;65.90;;;;;;5035182;28;20042;-77
2021/06/11 09:16:12;;;;;;;2.63;1.85;;;25.60;65.60;;;;;;5035951;28;20038;-76
2021/06/11 09:18:58;;;;;;;2.33;1.80;;;25.70;66.40;;;;;;5039686;28;20045;-78
2021/06/11 09:21:43;;;;;;;2.22;1.50;;;25.80;65.50;;;;;;5017645;28;20041;-77
2021/06/11 09:24:17;;;;;;;3.92;1.80;;;26.00;65.20;;;;;;5017885;28;20056;-78
2021/06/11 09:27:17;;;;;;;2.25;1.70;;;26.10;65.20;;;;;;5036965;28;20045;-77
2021/06/11 09:29:46;;;;;;;3.55;1.83;;;26.20;64.80;;;;;;5037266;28;20570;-77
2021/06/11 09:32:23;;;;;;;3.08;1.85;;;26.30;64.70;;;;;;5036764;28;20496;-78
2021/06/11 09:35:07;;;;;;;2.95;1.92;;;26.30;64.50;;;;;;5037629;28;20128;-77
2021/06/11 09:37:37;;;;;;;2.88;1.70;;;26.20;64.50;;;;;;5036494;28;20069;-77
2021/06/11 09:40:07;;;;;;;2.17;1.58;;;26.00;64.80;;;;;;5034783;28;20065;-77
2021/06/11 09:42:37;;;;;;;1.52;1.30;;;26.00;65.10;;;;;;5036042;28;20056;-76
2021/06/11 09:45:07;;;;;;;2.40;1.60;;;26.20;64.90;;;;;;5041368;28;20038;-76
2021/06/11 09:47:34;;;;;;;;;;;26.40;64.60;;;;;;5033493;28;20030;-76
2021/06/11 09:50:11;;;;;;;1.83;1.33;;;26.60;64.30;;;;;;5036254;28;19905;-76
2021/06/11 09:52:57;;;;;;;2.45;1.50;;;26.80;64.00;;;;;;5034832;28;20038;-76
2021/06/11 09:55:26;;;;;;;1.92;1.30;;;26.80;63.80;;;;;;5032061;28;20041;-75
2021/06/11 09:58:05;;;;;;;2.35;1.60;;;26.90;63.70;;;;;;5039483;28;20064;-77
2021/06/11 10:00:33;;;;;;;2.15;1.60;;;26.90;63.50;;;;;;5042981;28;20056;-77
2021/06/11 10:03:00;;;;;;;1.60;1.50;;;27.00;63.50;;;;;;5043249;28;20454;-77
2021/06/11 10:05:27;;;;;;;1.70;1.38;;;27.10;63.30;;;;;;5038053;28;20418;-78
2021/06/11 10:07:54;;;;;;;1.48;1.30;;;27.10;63.40;;;;;;5042502;28;20040;-77
2021/06/11 10:10:20;;;;;;;2.13;1.73;;;27.10;63.30;;;;;;5040694;28;20531;-78
2021/06/11 10:12:47;;;;;;;2.38;1.50;;;27.20;63.40;;;;;;5023835;28;20146;-77
2021/06/11 10:15:15;;;;;;;1.80;1.50;;;27.20;63.00;;;;;;5044869;28;20034;-76
2021/06/11 10:17:43;;;;;;;1.70;1.20;;;27.10;63.40;;;;;;5045925;28;20096;-76
2021/06/11 10:20:11;;;;;;;1.60;1.48;;;26.90;63.70;;;;;;5044458;28;20099;-75
2021/06/11 10:22:38;;;;;;;2.40;1.80;;;26.80;63.90;;;;;;5025406;28;20046;-76
2021/06/11 10:25:05;;;;;;;2.45;1.35;;;26.90;63.70;;;;;;5035494;28;20088;-78
2021/06/11 10:27:31;;;;;;;1.67;1.40;;;27.00;63.50;;;;;;5035796;28;20068;-75
2021/06/11 10:29:57;;;;;;;2.67;1.75;;;27.00;63.20;;;;;;5035358;28;20046;-75
2021/06/11 10:32:23;;;;;;;3.08;1.92;;;27.10;63.00;;;;;;5017803;28;20034;-75
2021/06/11 10:34:54;;;;;;;2.53;1.80;;;27.20;62.90;;;;;;5037941;28;20038;-76
2021/06/11 10:37:33;;;;;;;2.97;1.80;;;27.10;62.70;;;;;;5039271;28;20042;-77
2021/06/11 10:40:20;;;;;;;1.70;1.47;;;27.10;62.40;;;;;;5044941;28;20100;-76
2021/06/11 10:42:46;;;;;;;3.00;2.25;;;27.00;62.70;;;;;;5026204;28;20029;-77
2021/06/11 10:45:12;;;;;;;1.95;1.60;;;27.00;63.20;;;;;;5048182;28;20037;-76
2021/06/11 10:47:52;;;;;;;2.47;1.80;;;27.00;62.60;;;;;;5041569;28;20128;-77
2021/06/11 10:50:30;;;;;;;1.83;1.45;;;27.00;62.60;;;;;;5046858;28;20388;-76
2021/06/11 10:53:08;;;;;;;2.03;1.58;;;27.00;62.60;;;;;;5041667;28;20030;-77
2021/06/11 10:55:44;;;;;;;2.70;1.80;;;27.10;61.90;;;;;;5046293;28;20049;-78
2021/06/11 10:58:21;;;;;;;2.05;1.52;;;27.20;61.80;;;;;;5048506;28;20041;-77
2021/06/11 11:00:47;;;;;;;1.90;1.50;;;27.10;61.90;;;;;;5039592;28;20111;-76
2021/06/11 11:03:30;;;;;;;2.40;1.55;;;27.10;62.10;;;;;;5047505;28;20037;-76
2021/06/11 11:05:56;;;;;;;1.23;1.13;;;27.20;61.80;;;;;;5043917;28;20037;-77
2021/06/11 11:08:42;;;;;;;1.30;1.20;;;27.40;61.60;;;;;;5044355;28;20045;-76
2021/06/11 11:11:27;;;;;;;1.67;1.30;;;27.30;61.50;;;;;;5042363;28;20033;-77
2021/06/11 11:13:52;;;;;;;1.98;1.50;;;27.30;61.50;;;;;;5024169;28;20041;-77
2021/06/11 11:16:27;;;;;;;2.22;1.52;;;27.40;61.40;;;;;;5027574;28;20045;-77
2021/06/11 11:18:53;;;;;;;1.70;1.40;;;27.40;61.00;;;;;;5047167;28;20056;-76
2021/06/11 11:21:35;;;;;;;1.95;1.30;;;27.50;61.10;;;;;;5042974;28;20038;-76
2021/06/11 11:24:05;;;;;;;2.67;1.80;;;27.60;60.80;;;;;;5037461;28;20036;-77
2021/06/11 11:26:48;;;;;;;2.70;1.98;;;27.60;60.90;;;;;;5046395;28;20037;-76
2021/06/11 11:29:16;;;;;;;2.53;1.63;;;27.50;60.90;;;;;;5029222;28;20026;-75
2021/06/11 11:31:44;;;;;;;1.48;1.38;;;27.50;60.80;;;;;;5032935;28;20577;-75
2021/06/11 11:34:10;;;;;;;1.77;1.55;;;27.40;61.10;;;;;;5035144;28;20084;-75
2021/06/11 11:36:36;;;;;;;2.50;1.60;;;27.40;61.10;;;;;;5035933;28;20496;-75
2021/06/11 11:39:07;;;;;;;3.17;2.00;;;27.40;60.90;;;;;;5019657;28;20376;-75
2021/06/11 11:41:33;;;;;;;;;;;27.50;60.80;;;;;;5034956;28;21238;-75
2021/06/11 11:43:59;;;;;;;2.08;1.30;;;27.50;60.70;;;;;;5036668;28;20381;-75
2021/06/11 11:46:24;;;;;;;2.17;1.50;;;27.60;60.60;;;;;;5034575;28;20076;-75
2021/06/11 11:48:50;;;;;;;1.52;1.35;;;27.60;60.40;;;;;;5034793;28;20049;-74
2021/06/11 11:51:18;;;;;;;1.40;1.30;;;27.60;60.30;;;;;;5034358;28;20068;-75
2021/06/11 11:53:44;;;;;;;2.03;1.33;;;27.60;60.30;;;;;;5017417;28;20566;-75
2021/06/11 11:56:10;;;;;;;2.10;1.70;;;27.70;60.30;;;;;;5034893;28;20134;-75
2021/06/11 11:58:36;;;;;;;1.67;1.40;;;27.80;60.10;;;;;;5035631;28;20045;-75
2021/06/11 12:01:02;;;;;;;1.45;1.30;;;27.90;59.90;;;;;;5015854;28;20041;-76
2021/06/11 12:03:28;;;;;;;2.03;1.60;;;27.80;59.80;;;;;;5042370;28;20042;-76
2021/06/11 12:05:54;;;;;;;2.25;1.80;;;27.90;59.70;;;;;;5040884;28;20096;-76
2021/06/11 12:08:19;;;;;;;1.70;1.50;;;27.60;59.90;;;;;;5017581;28;20046;-75
2021/06/11 12:10:45;;;;;;;1.85;1.30;;;27.40;60.40;;;;;;5040124;28;20083;-76
2021/06/11 12:13:11;;;;;;;1.30;1.20;;;27.20;60.90;;;;;;5020712;28;20045;-75
2021/06/11 12:15:37;;;;;;;1.95;1.30;;;27.20;61.00;;;;;;5036836;28;20129;-76
2021/06/11 12:18:02;;;;;;;2.47;1.60;;;27.30;60.80;;;;;;5017708;28;20101;-75
2021/06/11 12:20:32;;;;;;;1.98;1.60;;;27.50;60.50;;;;;;5029248;28;20073;-76
2021/06/11 12:22:59;;;;;;;1.58;1.30;;;27.50;60.30;;;;;;5035649;28;20105;-77
2021/06/11 12:25:25;;;;;;;1.33;1.23;;;27.30;60.30;;;;;;5031320;28;20067;-77
2021/06/11 12:27:51;;;;;;;2.13;1.60;;;27.30;60.40;;;;;;5033547;28;20480;-77
2021/06/11 12:30:16;;;;;;;2.72;2.00;;;27.30;60.40;;;;;;5032950;28;20036;-77
2021/06/11 12:32:42;;;;;;;2.05;1.67;;;27.40;60.20;;;;;;5031754;28;20041;-76
2021/06/11 12:35:09;;;;;;;2.03;1.50;;;27.50;60.00;;;;;;5032716;28;20195;-76
2021/06/11 12:37:35;;;;;;;1.70;1.60;;;27.50;59.70;;;;;;5033866;28;20157;-76
2021/06/11 12:40:01;;;;;;;1.60;1.35;;;27.60;59.60;;;;;;5034615;28;20530;-76
2021/06/11 12:42:34;;;;;;;2.05;1.60;;;27.60;59.50;;;;;;5032660;28;20041;-76
2021/06/11 12:45:00;;;;;;;2.00;1.70;;;27.60;59.60;;;;;;5032445;28;20064;-77
2021/06/11 12:47:26;;;;;;;2.33;1.65;;;27.60;59.70;;;;;;5033744;28;20053;-78
2021/06/11 12:49:52;;;;;;;2.55;1.80;;;27.50;59.60;;;;;;5031341;28;20450;-77
2021/06/11 12:52:18;;;;;;;1.95;1.60;;;27.40;59.80;;;;;;5012654;28;20036;-75
2021/06/11 12:54:43;;;;;;;1.95;1.67;;;27.30;59.90;;;;;;5031610;28;20084;-75